Time;durP1;ratioP1;P1;durP2;ratioP2;P2;SDS_P1;SDS_P2;PMS_P1;PMS_P2;Temp;Humidity;BMP_temperature;BMP_pressure;BME280_temperature;BME280_humidity;BME280_pressure;Samples;Min_cycle;Max_cycle;Signal;HPM_P1;HPM_P2
2020/12/08 00:01:37;;;;;;;21.20;13.73;;;;;;;;;;5010926;28;20439;-53
2020/12/08 00:04:03;;;;;;;19.45;13.18;;;;;;;;;;5010592;28;20423;-53
2020/12/08 00:06:29;;;;;;;21.73;13.48;;;;;;;;;;5011068;28;20179;-53
2020/12/08 00:08:55;;;;;;;17.65;12.10;;;;;;;;;;5010876;28;20175;-53
2020/12/08 00:11:21;;;;;;;24.00;13.80;;;;;;;;;;5010837;28;20173;-53
2020/12/08 00:13:48;;;;;;;21.57;13.87;;;;;;;;;;5009660;28;20449;-53
2020/12/08 00:16:14;;;;;;;26.98;13.70;;;;;;;;;;5010919;28;20407;-53
2020/12/08 00:18:40;;;;;;;23.97;14.43;;;;;;;;;;5010729;28;20220;-54
2020/12/08 00:21:06;;;;;;;22.38;14.00;;;;;;;;;;5010739;28;20491;-53
2020/12/08 00:23:32;;;;;;;22.20;14.32;;;;;;;;;;5010523;28;20205;-53
2020/12/08 00:25:58;;;;;;;22.67;13.90;;;;;;;;;;5010779;28;20177;-53
2020/12/08 00:28:24;;;;;;;21.80;13.60;;;;;;;;;;5010207;28;20480;-53
2020/12/08 00:30:50;;;;;;;22.30;14.57;;;;;;;;;;5010583;28;20173;-53
2020/12/08 00:33:16;;;;;;;24.83;14.60;;;;;;;;;;5010422;28;20410;-53
2020/12/08 00:35:42;;;;;;;27.97;15.20;;;;;;;;;;5010553;28;20632;-53
2020/12/08 00:38:08;;;;;;;23.30;14.73;;;;;;;;;;5010654;28;20423;-53
2020/12/08 00:40:34;;;;;;;25.27;15.60;;;;;;;;;;5010444;28;20394;-53
2020/12/08 00:43:00;;;;;;;20.77;14.83;;;;;;;;;;5010418;28;20550;-53
2020/12/08 00:45:26;;;;;;;22.60;13.20;;;;;;;;;;5010459;28;20423;-53
2020/12/08 00:47:52;;;;;;;25.97;15.40;;;;;;;;;;5010591;28;20429;-53
2020/12/08 00:50:18;;;;;;;20.07;13.00;;;;;;;;;;5010381;28;20966;-53
2020/12/08 00:52:44;;;;;;;22.10;12.53;;;;;;;;;;5010396;28;20478;-53
2020/12/08 00:55:10;;;;;;;27.90;12.97;;;;;;;;;;5010371;28;20415;-53
2020/12/08 00:57:36;;;;;;;23.53;13.13;;;;;;;;;;5013329;28;20530;-53
2020/12/08 01:00:02;;;;;;;19.33;14.37;;;;;;;;;;5014189;28;20411;-53
2020/12/08 01:02:28;;;;;;;20.30;13.15;;;;;;;;;;5013578;28;20462;-53
2020/12/08 01:04:54;;;;;;;24.75;14.77;;;;;;;;;;5014039;28;20231;-53
2020/12/08 01:07:20;;;;;;;25.75;13.63;;;;;;;;;;5013897;28;20656;-53
2020/12/08 01:09:46;;;;;;;21.27;12.55;;;;;;;;;;5013912;28;20176;-53
2020/12/08 01:12:12;;;;;;;22.47;13.70;;;;;;;;;;5013722;28;20195;-53
2020/12/08 01:14:38;;;;;;;20.00;12.33;;;;;;;;;;5013983;28;20427;-53
2020/12/08 01:17:05;;;;;;;20.30;13.57;;;;;;;;;;5013686;28;20406;-53
2020/12/08 01:19:31;;;;;;;20.65;13.07;;;;;;;;;;5013846;28;20406;-53
2020/12/08 01:21:57;;;;;;;22.53;13.47;;;;;;;;;;5013441;28;20205;-53
2020/12/08 01:24:23;;;;;;;19.17;13.10;;;;;;;;;;5013575;28;20558;-55
2020/12/08 01:26:49;;;;;;;27.60;13.77;;;;;;;;;;5012929;28;20516;-53
2020/12/08 01:29:15;;;;;;;24.33;14.13;;;;;;;;;;5013605;28;20636;-53
2020/12/08 01:31:41;;;;;;;19.53;13.93;;;;;;;;;;5013617;28;20411;-54
2020/12/08 01:34:07;;;;;;;22.75;14.75;;;;;;;;;;5013331;28;20445;-53
2020/12/08 01:36:34;;;;;;;17.90;12.68;;;;;;;;;;5013766;28;20263;-54
2020/12/08 01:39:00;;;;;;;30.08;13.30;;;;;;;;;;5013472;28;20251;-53
2020/12/08 01:41:26;;;;;;;20.83;13.80;;;;;;;;;;5013422;28;20327;-53
2020/12/08 01:43:54;;;;;;;20.20;13.27;;;;;;;;;;5013051;28;20426;-53
2020/12/08 01:46:24;;;;;;;26.80;15.65;;;;;;;;;;5013265;28;20466;-53
2020/12/08 01:48:51;;;;;;;20.25;13.65;;;;;;;;;;5013179;28;20175;-53
2020/12/08 01:51:17;;;;;;;21.27;13.65;;;;;;;;;;5013168;28;20168;-53
2020/12/08 01:53:44;;;;;;;23.35;14.80;;;;;;;;;;5012761;28;20192;-53
2020/12/08 01:56:12;;;;;;;20.75;13.77;;;;;;;;;;5012235;28;20242;-53
2020/12/08 01:58:38;;;;;;;20.90;13.55;;;;;;;;;;5013179;28;20264;-54
2020/12/08 02:01:04;;;;;;;20.90;14.37;;;;;;;;;;5012421;28;20275;-53
2020/12/08 02:03:30;;;;;;;22.40;14.70;;;;;;;;;;5012227;28;20399;-53
2020/12/08 02:05:56;;;;;;;24.95;13.68;;;;;;;;;;5012108;28;20497;-53
2020/12/08 02:08:32;;;;;;;24.70;15.88;;;;;;;;;;5012250;28;20164;-54
2020/12/08 02:10:59;;;;;;;23.13;15.52;;;;;;;;;;5012619;28;20190;-53
2020/12/08 02:13:25;;;;;;;23.50;13.63;;;;;;;;;;5012495;28;20250;-53
2020/12/08 02:15:51;;;;;;;23.58;15.10;;;;;;;;;;5012535;28;20218;-54
2020/12/08 02:18:17;;;;;;;31.55;17.52;;;;;;;;;;5012647;28;20164;-53
2020/12/08 02:20:43;;;;;;;21.23;15.57;;;;;;;;;;5012411;28;20203;-53
2020/12/08 02:23:10;;;;;;;23.42;16.20;;;;;;;;;;5012546;28;20291;-53
2020/12/08 02:25:36;;;;;;;26.92;16.23;;;;;;;;;;5011470;28;20679;-53
2020/12/08 02:28:02;;;;;;;25.00;17.00;;;;;;;;;;5012568;28;20702;-53
2020/12/08 02:30:28;;;;;;;24.20;15.60;;;;;;;;;;5012316;28;20200;-53
2020/12/08 02:32:54;;;;;;;25.60;15.17;;;;;;;;;;5012124;28;20218;-53
2020/12/08 02:35:20;;;;;;;23.33;15.10;;;;;;;;;;5012147;28;20447;-53
2020/12/08 02:37:46;;;;;;;22.67;14.87;;;;;;;;;;5012199;28;20414;-53
2020/12/08 02:40:12;;;;;;;27.35;16.88;;;;;;;;;;5012304;28;20442;-54
2020/12/08 02:42:38;;;;;;;23.97;15.00;;;;;;;;;;5011879;28;20278;-53
2020/12/08 02:45:04;;;;;;;23.53;14.70;;;;;;;;;;5012101;28;20419;-53
2020/12/08 02:47:30;;;;;;;25.08;14.05;;;;;;;;;;5011993;28;20415;-53
2020/12/08 02:49:56;;;;;;;23.92;15.27;;;;;;;;;;5012023;28;20256;-53
2020/12/08 02:52:23;;;;;;;23.27;14.50;;;;;;;;;;5011701;28;20263;-53
2020/12/08 02:54:49;;;;;;;22.40;14.23;;;;;;;;;;5011037;28;21032;-53
2020/12/08 02:57:15;;;;;;;21.88;14.98;;;;;;;;;;5011849;28;20172;-53
2020/12/08 02:59:56;;;;;;;26.08;15.23;;;;;;;;;;5012410;28;20642;-53
2020/12/08 03:02:22;;;;;;;27.65;16.38;;;;;;;;;;5010923;28;20582;-53
2020/12/08 03:04:48;;;;;;;29.10;15.30;;;;;;;;;;5011915;28;20601;-53
2020/12/08 03:07:14;;;;;;;26.87;16.53;;;;;;;;;;5011811;28;20835;-54
2020/12/08 03:09:40;;;;;;;26.13;15.67;;;;;;;;;;5011700;28;20395;-53
2020/12/08 03:12:07;;;;;;;27.13;16.30;;;;;;;;;;5011428;28;20410;-52
2020/12/08 03:14:33;;;;;;;27.05;14.75;;;;;;;;;;5011548;28;20485;-53
2020/12/08 03:16:59;;;;;;;27.20;16.83;;;;;;;;;;5011918;28;20180;-53
2020/12/08 03:19:25;;;;;;;27.00;17.07;;;;;;;;;;5010936;28;20411;-54
2020/12/08 03:21:51;;;;;;;26.70;16.63;;;;;;;;;;5011802;28;20489;-53
2020/12/08 03:24:17;;;;;;;31.33;16.60;;;;;;;;;;5010712;28;20509;-53
2020/12/08 03:26:43;;;;;;;24.77;16.20;;;;;;;;;;5011667;28;20395;-53
2020/12/08 03:29:09;;;;;;;30.20;17.00;;;;;;;;;;5010722;28;20561;-53
2020/12/08 03:31:35;;;;;;;32.83;16.17;;;;;;;;;;5011446;28;20411;-53
2020/12/08 03:34:01;;;;;;;27.30;17.13;;;;;;;;;;5011114;28;20443;-54
2020/12/08 03:36:27;;;;;;;28.17;17.45;;;;;;;;;;5011215;28;20411;-53
2020/12/08 03:38:53;;;;;;;26.40;16.43;;;;;;;;;;5011320;28;20183;-53
2020/12/08 03:41:22;;;;;;;23.05;15.15;;;;;;;;;;5011040;28;20898;-53
2020/12/08 03:43:49;;;;;;;29.60;17.95;;;;;;;;;;5010966;28;20188;-54
2020/12/08 03:46:19;;;;;;;27.85;15.90;;;;;;;;;;5011085;28;20168;-54
2020/12/08 03:48:45;;;;;;;27.05;16.13;;;;;;;;;;5011213;28;20203;-53
2020/12/08 03:51:17;;;;;;;24.63;15.63;;;;;;;;;;5010997;28;20204;-54
2020/12/08 03:53:43;;;;;;;27.45;16.13;;;;;;;;;;5009960;28;20964;-52
2020/12/08 03:56:10;;;;;;;27.33;16.95;;;;;;;;;;5010968;28;20168;-54
2020/12/08 03:58:36;;;;;;;34.10;16.17;;;;;;;;;;5011114;28;20172;-53
2020/12/08 04:01:03;;;;;;;32.67;17.60;;;;;;;;;;5010934;28;20164;-54
2020/12/08 04:03:29;;;;;;;30.65;17.92;;;;;;;;;;5010765;28;20234;-54
2020/12/08 04:05:59;;;;;;;29.50;16.92;;;;;;;;;;5011025;28;20583;-53
2020/12/08 04:08:25;;;;;;;30.35;16.55;;;;;;;;;;5010913;28;20173;-53
2020/12/08 04:10:51;;;;;;;33.70;19.17;;;;;;;;;;5010906;28;20267;-53
2020/12/08 04:13:17;;;;;;;25.37;16.40;;;;;;;;;;5010533;28;20399;-54
2020/12/08 04:15:43;;;;;;;31.10;16.90;;;;;;;;;;5010901;28;20874;-53
2020/12/08 04:18:09;;;;;;;35.13;18.80;;;;;;;;;;5010785;28;20781;-52
2020/12/08 04:20:35;;;;;;;29.30;17.27;;;;;;;;;;5010838;28;20403;-54
2020/12/08 04:23:01;;;;;;;37.53;18.48;;;;;;;;;;5009534;28;20549;-53
2020/12/08 04:25:27;;;;;;;26.60;15.33;;;;;;;;;;5010162;28;20203;-53
2020/12/08 04:27:52;;;;;;;29.30;16.53;;;;;;;;;;5010609;28;20915;-53
2020/12/08 04:30:18;;;;;;;28.00;16.37;;;;;;;;;;5011082;28;20789;-53
2020/12/08 04:32:44;;;;;;;30.50;17.50;;;;;;;;;;5014294;28;20443;-53
2020/12/08 04:35:10;;;;;;;29.53;16.33;;;;;;;;;;5014555;28;20457;-53
2020/12/08 04:37:36;;;;;;;23.90;17.10;;;;;;;;;;5014535;28;21022;-53
2020/12/08 04:40:02;;;;;;;27.37;16.90;;;;;;;;;;5014400;28;20949;-53
2020/12/08 04:42:29;;;;;;;26.85;15.82;;;;;;;;;;5014180;28;20458;-53
2020/12/08 04:44:56;;;;;;;29.75;17.33;;;;;;;;;;5014262;28;20260;-54
2020/12/08 04:47:22;;;;;;;30.20;16.77;;;;;;;;;;5014390;28;20172;-53
2020/12/08 04:49:50;;;;;;;28.73;17.37;;;;;;;;;;5014196;28;20226;-54
2020/12/08 04:52:16;;;;;;;27.75;16.90;;;;;;;;;;5013078;28;20427;-53
2020/12/08 04:54:42;;;;;;;28.33;16.65;;;;;;;;;;5013389;28;20219;-53
2020/12/08 04:57:09;;;;;;;30.67;17.33;;;;;;;;;;5014200;28;20255;-53
2020/12/08 04:59:38;;;;;;;32.97;17.88;;;;;;;;;;5014098;28;20164;-53
2020/12/08 05:02:04;;;;;;;27.20;16.38;;;;;;;;;;5013769;28;20615;-53
2020/12/08 05:04:30;;;;;;;25.25;15.60;;;;;;;;;;5013865;28;20184;-53
2020/12/08 05:07:06;;;;;;;27.27;17.23;;;;;;;;;;5014127;28;20218;-55
2020/12/08 05:09:32;;;;;;;32.03;17.75;;;;;;;;;;5013897;28;20403;-54
2020/12/08 05:11:58;;;;;;;25.67;16.57;;;;;;;;;;5013960;28;20185;-53
2020/12/08 05:14:24;;;;;;;30.25;18.15;;;;;;;;;;5013804;28;20450;-53
2020/12/08 05:16:50;;;;;;;25.30;15.27;;;;;;;;;;5013847;28;20173;-53
2020/12/08 05:19:16;;;;;;;26.43;15.93;;;;;;;;;;5013877;28;20486;-53
2020/12/08 05:21:51;;;;;;;28.20;17.33;;;;;;;;;;5012938;28;20461;-54
2020/12/08 05:24:31;;;;;;;24.95;15.40;;;;;;;;;;5013557;28;20466;-53
2020/12/08 05:26:57;;;;;;;30.17;17.08;;;;;;;;;;5013529;28;20286;-53
2020/12/08 05:29:24;;;;;;;22.63;16.10;;;;;;;;;;5013754;28;20557;-53
2020/12/08 05:31:50;;;;;;;24.55;15.95;;;;;;;;;;5013454;28;20251;-53
2020/12/08 05:34:18;;;;;;;27.33;15.75;;;;;;;;;;5013412;28;20292;-52
2020/12/08 05:36:47;;;;;;;27.38;16.40;;;;;;;;;;5013516;28;20576;-54
2020/12/08 05:39:16;;;;;;;27.35;17.27;;;;;;;;;;5013643;28;20647;-53
2020/12/08 05:41:44;;;;;;;27.38;17.20;;;;;;;;;;5012928;28;20714;-53
2020/12/08 05:44:15;;;;;;;29.40;18.30;;;;;;;;;;5012919;28;20254;-52
2020/12/08 05:46:42;;;;;;;26.30;16.73;;;;;;;;;;5013621;28;20689;-52
2020/12/08 05:49:12;;;;;;;27.13;16.90;;;;;;;;;;5012550;28;20173;-54
2020/12/08 05:51:42;;;;;;;28.67;17.15;;;;;;;;;;5013103;28;20175;-53
2020/12/08 05:54:11;;;;;;;25.88;16.33;;;;;;;;;;5012985;28;20715;-53
2020/12/08 05:56:37;;;;;;;30.10;15.75;;;;;;;;;;5013053;28;20798;-53
2020/12/08 05:59:03;;;;;;;29.47;15.67;;;;;;;;;;5013146;28;20177;-53
2020/12/08 06:01:29;;;;;;;26.57;17.10;;;;;;;;;;5012899;28;20446;-53
2020/12/08 06:03:58;;;;;;;25.83;16.10;;;;;;;;;;5012741;28;21058;-53
2020/12/08 06:06:24;;;;;;;24.13;15.60;;;;;;;;;;5013009;28;20411;-53
2020/12/08 06:08:50;;;;;;;28.53;17.17;;;;;;;;;;5012810;28;20685;-53
2020/12/08 06:11:16;;;;;;;36.67;19.00;;;;;;;;;;5012622;28;20400;-54
2020/12/08 06:13:49;;;;;;;22.42;14.65;;;;;;;;;;5012417;28;20188;-53
2020/12/08 06:16:15;;;;;;;30.70;16.50;;;;;;;;;;5012818;28;20172;-53
2020/12/08 06:18:41;;;;;;;25.33;15.70;;;;;;;;;;5011643;28;20181;-54
2020/12/08 06:21:20;;;;;;;25.63;16.53;;;;;;;;;;5012655;28;20392;-53
2020/12/08 06:23:47;;;;;;;29.77;15.60;;;;;;;;;;5012170;28;20488;-53
2020/12/08 06:26:13;;;;;;;25.52;15.43;;;;;;;;;;5012528;28;20575;-54
2020/12/08 06:28:39;;;;;;;27.70;16.67;;;;;;;;;;5012502;28;20256;-53
2020/12/08 06:31:06;;;;;;;22.57;15.03;;;;;;;;;;5012327;28;20410;-53
2020/12/08 06:33:33;;;;;;;23.50;16.20;;;;;;;;;;5012045;28;20841;-53
2020/12/08 06:35:59;;;;;;;28.27;16.35;;;;;;;;;;5012320;28;20657;-53
2020/12/08 06:38:25;;;;;;;29.58;16.98;;;;;;;;;;5012244;28;20251;-54
2020/12/08 06:40:52;;;;;;;24.52;16.40;;;;;;;;;;5012066;28;20295;-53
2020/12/08 06:43:18;;;;;;;27.20;17.85;;;;;;;;;;5011985;28;20204;-54
2020/12/08 06:45:44;;;;;;;26.23;16.70;;;;;;;;;;5012024;28;20194;-53
2020/12/08 06:48:20;;;;;;;28.42;16.90;;;;;;;;;;5011336;28;20431;-54
2020/12/08 06:50:47;;;;;;;29.48;16.38;;;;;;;;;;5011797;28;20222;-53
2020/12/08 06:53:13;;;;;;;25.77;15.93;;;;;;;;;;5013649;28;20185;-54
2020/12/08 06:55:44;;;;;;;29.40;16.58;;;;;;;;;;5012789;28;20249;-52
2020/12/08 06:58:10;;;;;;;26.50;16.80;;;;;;;;;;5011943;28;20638;-52
2020/12/08 07:00:36;;;;;;;31.27;17.25;;;;;;;;;;5010771;28;20172;-51
2020/12/08 07:03:02;;;;;;;30.87;17.30;;;;;;;;;;5010331;28;20193;-51
2020/12/08 07:05:28;;;;;;;23.08;15.65;;;;;;;;;;5011031;28;20412;-52
2020/12/08 07:07:58;;;;;;;26.63;16.33;;;;;;;;;;5011657;28;20165;-53
2020/12/08 07:10:24;;;;;;;30.98;17.20;;;;;;;;;;5011698;28;20161;-51
2020/12/08 07:12:53;;;;;;;28.80;15.35;;;;;;;;;;5011512;28;20173;-51
2020/12/08 07:15:26;;;;;;;28.90;15.52;;;;;;;;;;5011610;28;20741;-53
2020/12/08 07:18:06;;;;;;;31.67;16.63;;;;;;;;;;5010549;28;20559;-51
2020/12/08 07:20:32;;;;;;;24.27;15.63;;;;;;;;;;5011511;28;20185;-52
2020/12/08 07:23:01;;;;;;;25.25;15.00;;;;;;;;;;5011314;28;20208;-51
2020/12/08 07:25:28;;;;;;;27.17;15.90;;;;;;;;;;5011564;28;20610;-52
2020/12/08 07:27:54;;;;;;;24.55;15.18;;;;;;;;;;5011373;28;20191;-52
2020/12/08 07:30:21;;;;;;;27.95;16.33;;;;;;;;;;5011415;28;20503;-52
2020/12/08 07:32:47;;;;;;;30.60;17.10;;;;;;;;;;5011271;28;20179;-52
2020/12/08 07:35:26;;;;;;;24.35;14.90;;;;;;;;;;5011371;28;20696;-51
2020/12/08 07:37:53;;;;;;;23.73;13.55;;;;;;;;;;5011428;28;20174;-52
2020/12/08 07:40:19;;;;;;;22.58;14.40;;;;;;;;;;5011540;28;20630;-51
2020/12/08 07:42:49;;;;;;;23.83;15.73;;;;;;;;;;5011380;28;20190;-51
2020/12/08 07:45:15;;;;;;;23.75;14.75;;;;;;;;;;5010463;28;20701;-51
2020/12/08 07:47:41;;;;;;;22.45;14.93;;;;;;;;;;5011407;28;20179;-52
2020/12/08 07:50:08;;;;;;;22.05;14.60;;;;;;;;;;5013162;28;20191;-51
2020/12/08 07:52:34;;;;;;;27.98;15.35;;;;;;;;;;5010910;28;20205;-51
2020/12/08 07:54:59;;;;;;;27.67;15.27;;;;;;;;;;5009905;28;20272;-52
2020/12/08 07:57:25;;;;;;;23.90;14.67;;;;;;;;;;5009334;28;20496;-52
2020/12/08 07:59:52;;;;;;;26.08;15.25;;;;;;;;;;5009281;28;20425;-52
2020/12/08 08:02:17;;;;;;;21.27;14.18;;;;;;;;;;5008878;28;20246;-52
2020/12/08 08:04:43;;;;;;;21.87;14.93;;;;;;;;;;5008903;28;20594;-52
2020/12/08 08:07:09;;;;;;;25.63;14.57;;;;;;;;;;5009118;28;20419;-51
2020/12/08 08:09:35;;;;;;;26.53;16.10;;;;;;;;;;5009964;28;20396;-52
2020/12/08 08:12:02;;;;;;;24.40;15.97;;;;;;;;;;5010667;28;20964;-51
2020/12/08 08:14:28;;;;;;;22.77;16.30;;;;;;;;;;5009959;28;20455;-52
2020/12/08 08:16:54;;;;;;;26.13;14.87;;;;;;;;;;5010855;28;20531;-52
2020/12/08 08:19:20;;;;;;;25.30;15.07;;;;;;;;;;5010942;28;20417;-52
2020/12/08 08:21:46;;;;;;;22.67;15.20;;;;;;;;;;5010585;28;20511;-51
2020/12/08 08:24:12;;;;;;;26.00;16.33;;;;;;;;;;5010609;28;20939;-52
2020/12/08 08:26:41;;;;;;;30.50;17.77;;;;;;;;;;5010624;28;20406;-52
2020/12/08 08:29:10;;;;;;;34.95;20.05;;;;;;;;;;5010987;28;20198;-51
2020/12/08 08:31:36;;;;;;;34.40;18.75;;;;;;;;;;5010747;28;20246;-52
2020/12/08 08:34:02;;;;;;;30.60;18.70;;;;;;;;;;5010430;28;20749;-52
2020/12/08 08:36:28;;;;;;;27.73;16.63;;;;;;;;;;5010533;28;20397;-52
2020/12/08 08:38:54;;;;;;;29.75;16.63;;;;;;;;;;5010649;28;20174;-52
2020/12/08 08:41:20;;;;;;;29.83;17.23;;;;;;;;;;5010522;28;20172;-52
2020/12/08 08:43:46;;;;;;;29.83;17.40;;;;;;;;;;5009598;28;20867;-52
2020/12/08 08:46:12;;;;;;;30.45;17.23;;;;;;;;;;5010621;28;20632;-52
2020/12/08 08:48:38;;;;;;;26.63;16.30;;;;;;;;;;5010493;28;20229;-52
2020/12/08 08:51:04;;;;;;;30.48;15.60;;;;;;;;;;5010467;28;20161;-51
2020/12/08 08:53:31;;;;;;;24.30;16.37;;;;;;;;;;5010220;28;20190;-52
2020/12/08 08:55:57;;;;;;;22.55;16.13;;;;;;;;;;5010560;28;20741;-52
2020/12/08 08:58:23;;;;;;;23.20;15.67;;;;;;;;;;5010406;28;20183;-53
2020/12/08 09:00:49;;;;;;;23.30;14.63;;;;;;;;;;5011054;28;20504;-53
2020/12/08 09:03:15;;;;;;;25.40;15.10;;;;;;;;;;5010268;28;20291;-51
2020/12/08 09:05:41;;;;;;;23.40;14.80;;;;;;;;;;5010483;28;20586;-51
2020/12/08 09:08:07;;;;;;;20.70;14.63;;;;;;;;;;5010305;28;20457;-52
2020/12/08 09:10:33;;;;;;;22.03;13.87;;;;;;;;;;5010373;28;20466;-51
2020/12/08 09:12:59;;;;;;;17.15;12.80;;;;;;;;;;5009290;28;20923;-51
2020/12/08 09:15:25;;;;;;;17.53;12.63;;;;;;;;;;5010186;28;20197;-52
2020/12/08 09:17:51;;;;;;;19.77;12.73;;;;;;;;;;5012915;28;20399;-51
2020/12/08 09:20:17;;;;;;;17.30;12.63;;;;;;;;;;5013702;28;20176;-52
2020/12/08 09:22:43;;;;;;;16.65;11.88;;;;;;;;;;5013500;28;20544;-52
2020/12/08 09:25:09;;;;;;;16.90;12.13;;;;;;;;;;5020478;28;20281;-52
2020/12/08 09:27:35;;;;;;;16.88;12.07;;;;;;;;;;5023616;28;20823;-51
2020/12/08 09:30:02;;;;;;;18.95;12.20;;;;;;;;;;5013208;28;20253;-52
2020/12/08 09:32:28;;;;;;;17.75;12.10;;;;;;;;;;5011552;28;20192;-51
2020/12/08 09:34:54;;;;;;;22.47;12.70;;;;;;;;;;5013245;28;20207;-51
2020/12/08 09:37:20;;;;;;;20.77;14.03;;;;;;;;;;5013079;28;20999;-51
2020/12/08 09:39:46;;;;;;;20.43;12.50;;;;;;;;;;5012816;28;20803;-52
2020/12/08 09:42:12;;;;;;;23.75;12.95;;;;;;;;;;5011542;28;21005;-51
2020/12/08 09:44:38;;;;;;;22.90;13.87;;;;;;;;;;5012426;28;20227;-51
2020/12/08 09:47:04;;;;;;;20.40;13.90;;;;;;;;;;5012963;28;20404;-51
2020/12/08 09:49:30;;;;;;;19.77;13.00;;;;;;;;;;5013108;28;20403;-51
2020/12/08 09:52:16;;;;;;;21.30;14.70;;;;;;;;;;5012628;28;20887;-52
2020/12/08 09:54:42;;;;;;;18.35;12.80;;;;;;;;;;5011705;28;20435;-51
2020/12/08 09:57:08;;;;;;;22.17;13.20;;;;;;;;;;5013175;28;20191;-51
2020/12/08 09:59:35;;;;;;;22.37;14.80;;;;;;;;;;5013031;28;20999;-52
2020/12/08 10:02:04;;;;;;;22.63;13.82;;;;;;;;;;5012796;28;20450;-51
2020/12/08 10:04:31;;;;;;;17.98;13.63;;;;;;;;;;5011470;28;20331;-51
2020/12/08 10:06:57;;;;;;;20.58;11.48;;;;;;;;;;5012714;28;20664;-51
2020/12/08 10:09:23;;;;;;;17.33;11.98;;;;;;;;;;5012645;28;20439;-51
2020/12/08 10:11:49;;;;;;;22.83;12.90;;;;;;;;;;5010125;28;20198;-52
2020/12/08 10:14:15;;;;;;;19.30;13.73;;;;;;;;;;5011748;28;20473;-51
2020/12/08 10:16:40;;;;;;;26.47;14.03;;;;;;;;;;5012091;28;20407;-52
2020/12/08 10:19:06;;;;;;;17.83;12.87;;;;;;;;;;5012819;28;20411;-52
2020/12/08 10:21:34;;;;;;;17.80;12.60;;;;;;;;;;5012484;28;20419;-52
2020/12/08 10:24:00;;;;;;;29.23;13.63;;;;;;;;;;5012375;28;20427;-52
2020/12/08 10:26:26;;;;;;;22.55;14.52;;;;;;;;;;5011390;28;20620;-53
2020/12/08 10:28:52;;;;;;;18.27;12.77;;;;;;;;;;5011510;28;20175;-51
2020/12/08 10:31:19;;;;;;;22.07;15.20;;;;;;;;;;5012379;28;20490;-52
2020/12/08 10:33:48;;;;;;;25.80;14.25;;;;;;;;;;5011638;28;20451;-53
2020/12/08 10:36:14;;;;;;;19.35;12.98;;;;;;;;;;5012280;28;20178;-53
2020/12/08 10:38:40;;;;;;;19.73;13.10;;;;;;;;;;5022786;28;20202;-52
2020/12/08 10:41:06;;;;;;;19.70;12.50;;;;;;;;;;5024287;28;20183;-53
2020/12/08 10:43:32;;;;;;;23.15;12.35;;;;;;;;;;5031263;28;20203;-52
2020/12/08 10:45:58;;;;;;;20.73;13.53;;;;;;;;;;5031716;28;20164;-53
2020/12/08 10:48:24;;;;;;;18.35;12.88;;;;;;;;;;5030041;28;20391;-53
2020/12/08 10:50:50;;;;;;;19.33;13.53;;;;;;;;;;5011833;28;20509;-54
2020/12/08 10:53:16;;;;;;;17.77;12.57;;;;;;;;;;5011932;28;20406;-54
2020/12/08 10:55:42;;;;;;;16.73;11.63;;;;;;;;;;5011836;28;20423;-54
2020/12/08 10:58:08;;;;;;;21.90;12.90;;;;;;;;;;5012134;28;20798;-51
2020/12/08 11:00:34;;;;;;;18.93;12.80;;;;;;;;;;5011995;28;20996;-52
2020/12/08 11:03:01;;;;;;;17.10;12.80;;;;;;;;;;5011544;28;20505;-51
2020/12/08 11:05:27;;;;;;;17.33;12.10;;;;;;;;;;5011925;28;20443;-52
2020/12/08 11:07:53;;;;;;;18.45;12.93;;;;;;;;;;5010785;28;20175;-52
2020/12/08 11:10:19;;;;;;;16.77;11.93;;;;;;;;;;5011028;28;20176;-52
2020/12/08 11:12:45;;;;;;;17.70;12.60;;;;;;;;;;5011633;28;20399;-52
2020/12/08 11:15:11;;;;;;;20.13;12.97;;;;;;;;;;5011880;28;20419;-52
2020/12/08 11:17:38;;;;;;;20.33;13.63;;;;;;;;;;5011785;28;20881;-52
2020/12/08 11:20:06;;;;;;;15.32;12.68;;;;;;;;;;5011936;28;20915;-52
2020/12/08 11:22:32;;;;;;;18.63;12.13;;;;;;;;;;5011555;28;20204;-51
2020/12/08 11:24:59;;;;;;;21.05;12.85;;;;;;;;;;5011354;28;20278;-52
2020/12/08 11:27:25;;;;;;;19.35;13.82;;;;;;;;;;5002409;28;20215;-53
2020/12/08 11:29:51;;;;;;;19.67;13.65;;;;;;;;;;5003931;28;20176;-53
2020/12/08 11:32:18;;;;;;;26.83;16.95;;;;;;;;;;5002014;28;20167;-52
2020/12/08 11:34:44;;;;;;;25.17;16.85;;;;;;;;;;5001618;28;20688;-52
2020/12/08 11:37:10;;;;;;;19.37;13.60;;;;;;;;;;5007837;28;20799;-52
2020/12/08 11:39:36;;;;;;;21.37;14.30;;;;;;;;;;5010949;28;20411;-52
2020/12/08 11:42:03;;;;;;;20.03;12.60;;;;;;;;;;5010311;28;20842;-52
2020/12/08 11:44:29;;;;;;;17.60;12.68;;;;;;;;;;5009861;28;20982;-54
2020/12/08 11:46:55;;;;;;;18.30;13.02;;;;;;;;;;5009170;28;20531;-52
2020/12/08 11:49:21;;;;;;;19.63;14.00;;;;;;;;;;5009454;28;20195;-54
2020/12/08 11:51:48;;;;;;;18.20;12.93;;;;;;;;;;5009355;28;20417;-52
2020/12/08 11:54:14;;;;;;;16.08;12.82;;;;;;;;;;5009343;28;20428;-53
2020/12/08 11:56:40;;;;;;;21.45;13.40;;;;;;;;;;5009673;28;20197;-52
2020/12/08 11:59:06;;;;;;;20.40;13.00;;;;;;;;;;5010891;28;20180;-52
2020/12/08 12:01:32;;;;;;;20.70;14.43;;;;;;;;;;5010804;28;20815;-52
2020/12/08 12:03:58;;;;;;;18.40;13.65;;;;;;;;;;5010367;28;20213;-52
2020/12/08 12:06:24;;;;;;;20.52;14.00;;;;;;;;;;5009710;28;21800;-51
2020/12/08 12:08:50;;;;;;;23.20;16.08;;;;;;;;;;5007015;28;20180;-52
2020/12/08 12:11:16;;;;;;;19.33;14.03;;;;;;;;;;5003951;28;20247;-52
2020/12/08 12:13:42;;;;;;;21.40;15.00;;;;;;;;;;5017056;28;20435;-52
2020/12/08 12:16:08;;;;;;;24.77;15.52;;;;;;;;;;5009269;28;20204;-52
2020/12/08 12:18:34;;;;;;;21.97;15.27;;;;;;;;;;5022847;28;20184;-53
2020/12/08 12:21:00;;;;;;;22.30;15.70;;;;;;;;;;5019040;28;20418;-52
2020/12/08 12:23:26;;;;;;;23.00;14.40;;;;;;;;;;5030044;28;20454;-52
2020/12/08 12:25:52;;;;;;;22.80;15.43;;;;;;;;;;5030438;28;20905;-53
2020/12/08 12:28:18;;;;;;;23.70;15.50;;;;;;;;;;5030105;28;20755;-52
2020/12/08 12:30:44;;;;;;;18.27;13.17;;;;;;;;;;5030546;28;20400;-53
2020/12/08 12:33:10;;;;;;;23.60;14.60;;;;;;;;;;5030019;28;20506;-52
2020/12/08 12:35:36;;;;;;;20.90;13.67;;;;;;;;;;5023747;28;20484;-51
2020/12/08 12:38:02;;;;;;;22.50;13.67;;;;;;;;;;5010622;28;20420;-51
2020/12/08 12:40:28;;;;;;;19.27;13.00;;;;;;;;;;5010714;28;20403;-51
2020/12/08 12:42:54;;;;;;;17.17;11.93;;;;;;;;;;5010225;28;20966;-52
2020/12/08 12:45:20;;;;;;;19.90;13.07;;;;;;;;;;5010195;28;20479;-52
2020/12/08 12:47:47;;;;;;;17.97;12.40;;;;;;;;;;5009577;28;20428;-52
2020/12/08 12:50:13;;;;;;;22.35;12.57;;;;;;;;;;5014838;28;20411;-56
2020/12/08 12:52:39;;;;;;;19.37;12.10;;;;;;;;;;5032037;28;20325;-52
2020/12/08 12:55:05;;;;;;;17.43;12.77;;;;;;;;;;5034090;28;20429;-53
2020/12/08 12:57:33;;;;;;;19.43;14.77;;;;;;;;;;5033998;28;20413;-54
2020/12/08 12:59:59;;;;;;;19.73;13.45;;;;;;;;;;5015745;28;20417;-51
2020/12/08 13:02:25;;;;;;;24.80;15.80;;;;;;;;;;5014084;28;20197;-51
2020/12/08 13:04:50;;;;;;;21.77;13.80;;;;;;;;;;5013303;28;20831;-52
2020/12/08 13:07:17;;;;;;;18.37;12.87;;;;;;;;;;5014264;28;20426;-52
2020/12/08 13:09:44;;;;;;;18.00;13.00;;;;;;;;;;5013927;28;20455;-53
2020/12/08 13:12:10;;;;;;;19.80;13.40;;;;;;;;;;5013789;28;20467;-53
2020/12/08 13:14:36;;;;;;;18.00;13.40;;;;;;;;;;5013648;28;20428;-54
2020/12/08 13:17:02;;;;;;;23.60;14.50;;;;;;;;;;5013915;28;20420;-52
2020/12/08 13:19:28;;;;;;;27.63;13.77;;;;;;;;;;5016999;28;20403;-52
2020/12/08 13:21:55;;;;;;;16.10;13.60;;;;;;;;;;5032574;28;20526;-52
2020/12/08 13:24:21;;;;;;;16.40;11.20;;;;;;;;;;5032925;28;20429;-52
2020/12/08 13:26:47;;;;;;;16.40;12.20;;;;;;;;;;5032826;28;20448;-52
2020/12/08 13:29:13;;;;;;;18.03;12.43;;;;;;;;;;5032613;28;21091;-52
2020/12/08 13:31:38;;;;;;;15.17;11.50;;;;;;;;;;5032743;28;20497;-53
2020/12/08 13:34:05;;;;;;;15.97;12.10;;;;;;;;;;5027786;28;20490;-53
2020/12/08 13:36:31;;;;;;;16.73;12.50;;;;;;;;;;5024897;28;20520;-53
2020/12/08 13:38:58;;;;;;;18.53;12.47;;;;;;;;;;5013439;28;20424;-52
2020/12/08 13:41:24;;;;;;;18.13;13.30;;;;;;;;;;5012297;28;20435;-52
2020/12/08 13:43:50;;;;;;;15.73;11.57;;;;;;;;;;5012919;28;20614;-51
2020/12/08 13:46:22;;;;;;;18.70;11.95;;;;;;;;;;5013250;28;20404;-53
2020/12/08 13:48:49;;;;;;;17.67;12.67;;;;;;;;;;5013247;28;20182;-52
2020/12/08 13:51:15;;;;;;;16.30;12.13;;;;;;;;;;5013102;28;20876;-52
2020/12/08 13:53:41;;;;;;;21.47;12.83;;;;;;;;;;5012608;28;20435;-52
2020/12/08 13:56:07;;;;;;;14.83;11.37;;;;;;;;;;5012611;28;20978;-51
2020/12/08 13:58:34;;;;;;;16.77;12.00;;;;;;;;;;5012982;28;20452;-52
2020/12/08 14:01:00;;;;;;;16.63;12.00;;;;;;;;;;5012874;28;20466;-53
2020/12/08 14:03:26;;;;;;;23.93;12.20;;;;;;;;;;5010338;28;20469;-53
2020/12/08 14:05:56;;;;;;;16.27;12.00;;;;;;;;;;5013022;28;20443;-52
2020/12/08 14:08:22;;;;;;;17.00;12.02;;;;;;;;;;5012771;28;20440;-54
2020/12/08 14:10:49;;;;;;;16.43;11.63;;;;;;;;;;5012118;28;20172;-52
2020/12/08 14:13:15;;;;;;;18.23;13.20;;;;;;;;;;5012500;28;20905;-52